sensor_id;sensor_type;location;lat;lon;timestamp;temperature;humidity
76750;DHT22;66447;35.844;14.468;2023-09-19T00:02:08;32.13;33.42
76750;DHT22;66447;35.844;14.468;2023-09-19T00:17:09;32.30;38.01
76750;DHT22;66447;35.844;14.468;2023-09-19T00:32:10;33.13;24.74
76750;DHT22;66447;35.844;14.468;2023-09-19T00:47:10;31.81;51.99
76750;DHT22;66447;35.844;14.468;2023-09-19T01:02:16;31.76;37.27
76750;DHT22;66447;35.844;14.468;2023-09-19T01:17:25;32.34;-6.00
76750;DHT22;66447;35.844;14.468;2023-09-19T01:32:29;32.98;-6.00
76750;DHT22;66447;35.844;14.468;2023-09-19T01:47:51;33.32;-6.00
76750;DHT22;66447;35.844;14.468;2023-09-19T02:02:56;31.90;-6.00
76750;DHT22;66447;35.844;14.468;2023-09-19T02:17:59;32.91;-6.00
76750;DHT22;66447;35.844;14.468;2023-09-19T02:33:00;32.59;-6.00
76750;DHT22;66447;35.844;14.468;2023-09-19T02:48:06;33.94;-6.00
76750;DHT22;66447;35.844;14.468;2023-09-19T03:03:08;34.11;-6.00
76750;DHT22;66447;35.844;14.468;2023-09-19T03:18:09;32.24;-6.00
76750;DHT22;66447;35.844;14.468;2023-09-19T03:33:09;31.86;11.54
76750;DHT22;66447;35.844;14.468;2023-09-19T03:48:12;31.68;49.37
76750;DHT22;66447;35.844;14.468;2023-09-19T04:03:13;30.57;118.99
76750;DHT22;66447;35.844;14.468;2023-09-19T04:18:19;32.22;102.59
76750;DHT22;66447;35.844;14.468;2023-09-19T04:33:21;33.26;63.96
76750;DHT22;66447;35.844;14.468;2023-09-19T04:48:22;33.11;63.16
76750;DHT22;66447;35.844;14.468;2023-09-19T05:03:26;32.88;63.50
76750;DHT22;66447;35.844;14.468;2023-09-19T05:18:27;31.53;98.97
76750;DHT22;66447;35.844;14.468;2023-09-19T05:33:27;33.16;50.76
76750;DHT22;66447;35.844;14.468;2023-09-19T05:48:28;34.18;34.95
76750;DHT22;66447;35.844;14.468;2023-09-19T06:03:29;34.17;27.06
76750;DHT22;66447;35.844;14.468;2023-09-19T06:18:32;35.77;-6.00
76750;DHT22;66447;35.844;14.468;2023-09-19T06:33:34;37.71;-6.00
76750;DHT22;66447;35.844;14.468;2023-09-19T06:48:35;38.35;-6.00
76750;DHT22;66447;35.844;14.468;2023-09-19T07:03:36;41.10;-6.00
76750;DHT22;66447;35.844;14.468;2023-09-19T07:18:37;45.42;-6.00
76750;DHT22;66447;35.844;14.468;2023-09-19T07:33:38;43.17;-6.00
76750;DHT22;66447;35.844;14.468;2023-09-19T07:48:38;45.65;-6.00
76750;DHT22;66447;35.844;14.468;2023-09-19T08:03:40;43.08;-6.00
76750;DHT22;66447;35.844;14.468;2023-09-19T08:18:42;44.70;-6.00
76750;DHT22;66447;35.844;14.468;2023-09-19T08:33:44;41.52;-6.00
76750;DHT22;66447;35.844;14.468;2023-09-19T08:48:58;41.74;-6.00
76750;DHT22;66447;35.844;14.468;2023-09-19T09:04:02;40.56;-6.00
76750;DHT22;66447;35.844;14.468;2023-09-19T09:19:05;43.32;-6.00
76750;DHT22;66447;35.844;14.468;2023-09-19T09:34:06;40.87;-6.00
76750;DHT22;66447;35.844;14.468;2023-09-19T09:49:10;44.81;-6.00
76750;DHT22;66447;35.844;14.468;2023-09-19T10:04:29;41.69;-6.00
76750;DHT22;66447;35.844;14.468;2023-09-19T10:19:46;42.02;-6.00
76750;DHT22;66447;35.844;14.468;2023-09-19T10:34:54;43.39;-6.00
76750;DHT22;66447;35.844;14.468;2023-09-19T10:49:56;41.89;-6.00
76750;DHT22;66447;35.844;14.468;2023-09-19T11:05:11;43.58;-6.00
76750;DHT22;66447;35.844;14.468;2023-09-19T11:35:14;43.71;-6.00
76750;DHT22;66447;35.844;14.468;2023-09-19T12:06:15;41.65;-6.00
76750;DHT22;66447;35.844;14.468;2023-09-19T12:21:31;40.54;-6.00
76750;DHT22;66447;35.844;14.468;2023-09-19T12:36:33;43.62;-6.00
76750;DHT22;66447;35.844;14.468;2023-09-19T12:51:35;40.87;-6.00
76750;DHT22;66447;35.844;14.468;2023-09-19T13:06:36;41.32;-6.00
76750;DHT22;66447;35.844;14.468;2023-09-19T13:21:40;40.33;-6.00
76750;DHT22;66447;35.844;14.468;2023-09-19T13:36:50;40.36;-6.00
76750;DHT22;66447;35.844;14.468;2023-09-19T13:51:50;41.65;-6.00
76750;DHT22;66447;35.844;14.468;2023-09-19T14:06:51;41.09;-6.00
76750;DHT22;66447;35.844;14.468;2023-09-19T14:21:52;41.96;-6.00
76750;DHT22;66447;35.844;14.468;2023-09-19T14:36:55;37.62;-6.00
76750;DHT22;66447;35.844;14.468;2023-09-19T14:51:57;39.25;-6.00
76750;DHT22;66447;35.844;14.468;2023-09-19T15:06:58;36.36;6.37
76750;DHT22;66447;35.844;14.468;2023-09-19T15:22:00;36.19;41.72
76750;DHT22;66447;35.844;14.468;2023-09-19T15:37:01;35.97;47.52
76750;DHT22;66447;35.844;14.468;2023-09-19T15:52:02;35.92;41.49
76750;DHT22;66447;35.844;14.468;2023-09-19T16:07:03;34.80;90.92
76750;DHT22;66447;35.844;14.468;2023-09-19T16:22:05;35.07;117.89
76750;DHT22;66447;35.844;14.468;2023-09-19T16:37:06;34.65;118.99
76750;DHT22;66447;35.844;14.468;2023-09-19T16:52:06;33.47;118.99
76750;DHT22;66447;35.844;14.468;2023-09-19T17:07:07;34.53;118.99
76750;DHT22;66447;35.844;14.468;2023-09-19T17:22:08;34.12;118.99
76750;DHT22;66447;35.844;14.468;2023-09-19T17:37:09;33.71;118.99
76750;DHT22;66447;35.844;14.468;2023-09-19T17:52:11;33.05;118.99
76750;DHT22;66447;35.844;14.468;2023-09-19T18:07:11;33.45;118.99
76750;DHT22;66447;35.844;14.468;2023-09-19T18:22:12;32.91;118.99
76750;DHT22;66447;35.844;14.468;2023-09-19T18:37:14;33.71;118.99
76750;DHT22;66447;35.844;14.468;2023-09-19T18:52:14;35.10;118.99
76750;DHT22;66447;35.844;14.468;2023-09-19T19:07:15;35.15;118.99
76750;DHT22;66447;35.844;14.468;2023-09-19T19:22:22;34.17;118.99
76750;DHT22;66447;35.844;14.468;2023-09-19T19:37:23;34.61;118.99
76750;DHT22;66447;35.844;14.468;2023-09-19T19:52:26;34.07;101.15
76750;DHT22;66447;35.844;14.468;2023-09-19T20:07:29;35.81;10.93
76750;DHT22;66447;35.844;14.468;2023-09-19T20:22:30;36.26;0.56
76750;DHT22;66447;35.844;14.468;2023-09-19T20:37:33;36.19;-6.00
76750;DHT22;66447;35.844;14.468;2023-09-19T20:52:35;34.93;35.97
76750;DHT22;66447;35.844;14.468;2023-09-19T21:07:37;33.74;118.99
76750;DHT22;66447;35.844;14.468;2023-09-19T21:22:41;34.86;103.09
76750;DHT22;66447;35.844;14.468;2023-09-19T21:37:42;33.97;118.99
76750;DHT22;66447;35.844;14.468;2023-09-19T21:52:43;32.96;118.99
76750;DHT22;66447;35.844;14.468;2023-09-19T22:07:44;33.26;118.99
76750;DHT22;66447;35.844;14.468;2023-09-19T22:22:45;33.16;118.99
76750;DHT22;66447;35.844;14.468;2023-09-19T22:37:46;34.34;118.99
76750;DHT22;66447;35.844;14.468;2023-09-19T22:52:49;34.37;90.34
76750;DHT22;66447;35.844;14.468;2023-09-19T23:07:50;36.01;3.26
76750;DHT22;66447;35.844;14.468;2023-09-19T23:22:58;37.27;-6.00
76750;DHT22;66447;35.844;14.468;2023-09-19T23:37:59;35.69;-6.00
76750;DHT22;66447;35.844;14.468;2023-09-19T23:53:01;36.27;-6.00
